Time;durP1;ratioP1;P1;durP2;ratioP2;P2;SDS_P1;SDS_P2;PMS_P1;PMS_P2;Temp;Humidity;BMP_temperature;BMP_pressure;BME280_temperature;BME280_humidity;BME280_pressure;Samples;Min_cycle;Max_cycle;Signal;HPM_P1;HPM_P2
2024/02/22 00:02:21;;;;;;;4.78;4.30;;;;;;;;;;5076274;28;20445;-80
2024/02/22 00:04:47;;;;;;;5.22;4.60;;;;;;;;;;5076631;28;20745;-80
2024/02/22 00:07:16;;;;;;;5.30;4.80;;;;;;;;;;5076929;28;20384;-80
2024/02/22 00:09:42;;;;;;;6.47;5.25;;;;;;;;;;5076809;28;20499;-81
2024/02/22 00:12:08;;;;;;;5.45;4.75;;;;;;;;;;5075965;28;20411;-80
2024/02/22 00:14:34;;;;;;;6.15;5.55;;;;;;;;;;5076363;28;20372;-80
2024/02/22 00:17:00;;;;;;;5.38;4.55;;;;;;;;;;5058448;28;20723;-80
2024/02/22 00:19:27;;;;;;;5.47;4.63;;;;;;;;;;5056243;28;20382;-80
2024/02/22 00:21:53;;;;;;;6.10;5.40;;;;;;;;;;5056591;28;20380;-81
2024/02/22 00:24:19;;;;;;;6.03;5.07;;;;;;;;;;5055676;28;20374;-80
2024/02/22 00:26:45;;;;;;;5.90;5.30;;;;;;;;;;5055370;28;20886;-80
2024/02/22 00:29:11;;;;;;;6.35;5.75;;;;;;;;;;5055492;28;20490;-80
2024/02/22 00:31:38;;;;;;;6.00;5.40;;;;;;;;;;5055778;28;20413;-80
2024/02/22 00:34:05;;;;;;;6.00;5.40;;;;;;;;;;5054266;28;20433;-80
2024/02/22 00:36:44;;;;;;;5.07;4.68;;;;;;;;;;5073073;28;20414;-80
2024/02/22 00:39:10;;;;;;;4.95;4.55;;;;;;;;;;5076004;28;20405;-80
2024/02/22 00:41:36;;;;;;;6.30;5.70;;;;;;;;;;5076267;28;20372;-80
2024/02/22 00:44:05;;;;;;;5.97;4.93;;;;;;;;;;5076109;28;20383;-80
2024/02/22 00:46:31;;;;;;;6.10;5.53;;;;;;;;;;5076687;28;20372;-80
2024/02/22 00:48:57;;;;;;;21.55;16.13;;;;;;;;;;5076229;28;20387;-80
2024/02/22 00:51:23;;;;;;;31.67;21.00;;;;;;;;;;5076271;28;20558;-81
2024/02/22 00:53:49;;;;;;;5.07;4.45;;;;;;;;;;5075757;28;20380;-80
2024/02/22 00:56:15;;;;;;;11.10;8.65;;;;;;;;;;5075415;28;20380;-80
2024/02/22 00:58:42;;;;;;;10.00;7.97;;;;;;;;;;5076246;28;20849;-80
2024/02/22 01:01:09;;;;;;;7.07;6.37;;;;;;;;;;5075917;28;20502;-80
2024/02/22 01:03:34;;;;;;;6.43;5.82;;;;;;;;;;5075738;28;20384;-80
2024/02/22 01:06:00;;;;;;;6.10;5.50;;;;;;;;;;5075658;28;20406;-80
2024/02/22 01:08:26;;;;;;;5.53;5.03;;;;;;;;;;5076164;28;20470;-80
2024/02/22 01:10:52;;;;;;;6.47;5.90;;;;;;;;;;5075737;28;20406;-80
2024/02/22 01:13:18;;;;;;;5.40;4.80;;;;;;;;;;5075820;28;20791;-80
2024/02/22 01:15:44;;;;;;;5.35;4.80;;;;;;;;;;5075575;28;20409;-80
2024/02/22 01:18:10;;;;;;;7.32;5.15;;;;;;;;;;5075378;28;20372;-80
2024/02/22 01:20:36;;;;;;;5.20;4.70;;;;;;;;;;5075159;28;20410;-80
2024/02/22 01:23:06;;;;;;;5.50;5.00;;;;;;;;;;5075613;28;20384;-80
2024/02/22 01:25:32;;;;;;;5.30;4.80;;;;;;;;;;5079040;28;20393;-80
2024/02/22 01:27:58;;;;;;;5.82;4.93;;;;;;;;;;5079300;28;20383;-80
2024/02/22 01:30:24;;;;;;;5.07;4.55;;;;;;;;;;5079536;28;20733;-80
2024/02/22 01:32:50;;;;;;;5.30;4.73;;;;;;;;;;5079545;28;20422;-80
2024/02/22 01:35:16;;;;;;;5.72;4.72;;;;;;;;;;5079395;28;20757;-80
2024/02/22 01:37:42;;;;;;;6.00;5.10;;;;;;;;;;5079425;28;20914;-80
2024/02/22 01:40:12;;;;;;;5.32;4.82;;;;;;;;;;5079172;28;20371;-81
2024/02/22 01:42:41;;;;;;;5.75;5.10;;;;;;;;;;5079143;28;20372;-80
2024/02/22 01:45:07;;;;;;;6.70;5.13;;;;;;;;;;5079419;28;20394;-80
2024/02/22 01:47:33;;;;;;;5.68;5.18;;;;;;;;;;5077390;28;20400;-80
2024/02/22 01:50:00;;;;;;;5.53;5.03;;;;;;;;;;5079570;28;20375;-81
2024/02/22 01:52:26;;;;;;;5.10;4.70;;;;;;;;;;5078617;28;20407;-80
2024/02/22 01:54:52;;;;;;;6.43;5.05;;;;;;;;;;5079310;28;20391;-80
2024/02/22 01:57:18;;;;;;;5.50;4.97;;;;;;;;;;5078753;28;20384;-80
2024/02/22 01:59:45;;;;;;;5.60;5.10;;;;;;;;;;5078472;28;20471;-80
2024/02/22 02:02:11;;;;;;;5.20;4.68;;;;;;;;;;5078838;28;20384;-80
2024/02/22 02:04:38;;;;;;;5.10;4.60;;;;;;;;;;5078617;28;20410;-80
2024/02/22 02:07:04;;;;;;;5.43;4.40;;;;;;;;;;5078954;28;20390;-80
2024/02/22 02:09:30;;;;;;;5.45;4.93;;;;;;;;;;5078531;28;20371;-80
2024/02/22 02:11:56;;;;;;;6.18;4.95;;;;;;;;;;5078834;28;20395;-80
2024/02/22 02:14:22;;;;;;;4.82;4.35;;;;;;;;;;5078080;28;20380;-80
2024/02/22 02:16:48;;;;;;;6.85;4.90;;;;;;;;;;5078326;28;20865;-80
2024/02/22 02:19:19;;;;;;;5.45;4.40;;;;;;;;;;5076422;28;20384;-80
2024/02/22 02:21:52;;;;;;;5.05;4.30;;;;;;;;;;5078404;28;20471;-80
2024/02/22 02:24:21;;;;;;;4.60;4.20;;;;;;;;;;5078590;28;20368;-80
2024/02/22 02:26:47;;;;;;;4.85;3.53;;;;;;;;;;5078038;28;20467;-80
2024/02/22 02:29:15;;;;;;;4.32;2.90;;;;;;;;;;5077845;28;20399;-80
2024/02/22 02:31:41;;;;;;;3.87;2.50;;;;;;;;;;5077807;28;20407;-81
2024/02/22 02:34:07;;;;;;;2.95;2.10;;;;;;;;;;5077917;28;20392;-81
2024/02/22 02:36:33;;;;;;;2.50;1.95;;;;;;;;;;5077427;28;20398;-80
2024/02/22 02:38:59;;;;;;;2.08;1.58;;;;;;;;;;5078268;28;20845;-80
2024/02/22 02:41:25;;;;;;;2.80;1.52;;;;;;;;;;5078324;28;20384;-81
2024/02/22 02:43:50;;;;;;;1.55;1.45;;;;;;;;;;5078043;28;20382;-80
2024/02/22 02:46:16;;;;;;;2.28;1.42;;;;;;;;;;5078214;28;20383;-80
2024/02/22 02:48:42;;;;;;;2.17;1.63;;;;;;;;;;5077903;28;20474;-80
2024/02/22 02:51:08;;;;;;;2.50;1.63;;;;;;;;;;5077399;28;20530;-80
2024/02/22 02:53:35;;;;;;;3.08;1.80;;;;;;;;;;5077979;28;20372;-80
2024/02/22 02:56:01;;;;;;;1.70;1.60;;;;;;;;;;5077464;28;20380;-80
2024/02/22 02:58:26;;;;;;;2.03;1.50;;;;;;;;;;5077509;28;20447;-80
2024/02/22 03:00:52;;;;;;;2.88;1.38;;;;;;;;;;5077705;28;20388;-80
2024/02/22 03:03:19;;;;;;;2.33;1.30;;;;;;;;;;5077631;28;20399;-80
2024/02/22 03:05:45;;;;;;;1.17;1.08;;;;;;;;;;5077643;28;20860;-80
2024/02/22 03:08:11;;;;;;;1.20;1.10;;;;;;;;;;5077425;28;20394;-80
2024/02/22 03:10:36;;;;;;;1.25;1.13;;;;;;;;;;5077428;28;20388;-80
2024/02/22 03:13:08;;;;;;;2.60;1.30;;;;;;;;;;5077769;28;20422;-81
2024/02/22 03:15:35;;;;;;;1.70;1.27;;;;;;;;;;5077369;28;20443;-80
2024/02/22 03:18:01;;;;;;;1.73;1.10;;;;;;;;;;5068963;28;20632;-80
2024/02/22 03:20:27;;;;;;;1.65;1.05;;;;;;;;;;5058124;28;20413;-80
2024/02/22 03:22:53;;;;;;;1.10;1.00;;;;;;;;;;5056508;28;20381;-80
2024/02/22 03:25:19;;;;;;;1.37;1.20;;;;;;;;;;5057094;28;20441;-80
2024/02/22 03:27:45;;;;;;;1.85;1.00;;;;;;;;;;5065027;28;20865;-80
2024/02/22 03:30:12;;;;;;;1.50;1.30;;;;;;;;;;5076942;28;20411;-80
2024/02/22 03:32:38;;;;;;;1.52;1.20;;;;;;;;;;5077148;28;20403;-81
2024/02/22 03:35:05;;;;;;;3.50;1.30;;;;;;;;;;5077038;28;20372;-80
2024/02/22 03:37:31;;;;;;;1.85;1.40;;;;;;;;;;5076418;28;20376;-80
2024/02/22 03:39:57;;;;;;;1.70;1.23;;;;;;;;;;5076731;28;20387;-80
2024/02/22 03:42:23;;;;;;;2.17;1.10;;;;;;;;;;5076069;28;20874;-80
2024/02/22 03:44:49;;;;;;;1.50;1.17;;;;;;;;;;5076102;28;20521;-80
2024/02/22 03:47:15;;;;;;;1.80;1.30;;;;;;;;;;5075025;28;20387;-80
2024/02/22 03:49:41;;;;;;;1.50;1.20;;;;;;;;;;5076147;28;20923;-81
2024/02/22 03:52:07;;;;;;;1.30;1.20;;;;;;;;;;5075494;28;20412;-80
2024/02/22 03:54:37;;;;;;;1.30;1.10;;;;;;;;;;5074636;28;20921;-80
2024/02/22 03:57:03;;;;;;;2.40;1.33;;;;;;;;;;5075410;28;20429;-80
2024/02/22 03:59:30;;;;;;;1.80;1.40;;;;;;;;;;5075807;28;20455;-80
2024/02/22 04:01:56;;;;;;;2.05;1.30;;;;;;;;;;5075835;28;20384;-80
2024/02/22 04:04:22;;;;;;;2.13;1.30;;;;;;;;;;5075370;28;20392;-80
2024/02/22 04:06:49;;;;;;;1.85;1.25;;;;;;;;;;5075646;28;20388;-80
2024/02/22 04:09:15;;;;;;;1.67;1.30;;;;;;;;;;5075450;28;20383;-80
2024/02/22 04:11:41;;;;;;;1.17;1.08;;;;;;;;;;5075747;28;20407;-80
2024/02/22 04:14:08;;;;;;;1.50;1.20;;;;;;;;;;5075150;28;20395;-80
2024/02/22 04:16:34;;;;;;;2.20;1.38;;;;;;;;;;5075077;28;20374;-80
2024/02/22 04:19:01;;;;;;;2.00;1.50;;;;;;;;;;5056534;28;20867;-80
2024/02/22 04:21:27;;;;;;;2.08;1.50;;;;;;;;;;5055579;28;20423;-80
2024/02/22 04:23:53;;;;;;;2.92;1.27;;;;;;;;;;5055315;28;20957;-80
2024/02/22 04:26:19;;;;;;;2.75;1.40;;;;;;;;;;5054753;28;20405;-81
2024/02/22 04:28:45;;;;;;;2.92;1.42;;;;;;;;;;5054517;28;20378;-80
2024/02/22 04:31:11;;;;;;;2.10;1.50;;;;;;;;;;5055382;28;20415;-81
2024/02/22 04:33:37;;;;;;;1.98;1.45;;;;;;;;;;5055774;28;20844;-81
2024/02/22 04:36:03;;;;;;;1.73;1.58;;;;;;;;;;5073536;28;20462;-80
2024/02/22 04:38:29;;;;;;;2.10;1.90;;;;;;;;;;5075585;28;20463;-81
2024/02/22 04:40:56;;;;;;;1.58;1.48;;;;;;;;;;5075678;28;20379;-81
2024/02/22 04:43:22;;;;;;;1.83;1.60;;;;;;;;;;5075263;28;20406;-81
2024/02/22 04:45:48;;;;;;;1.73;1.52;;;;;;;;;;5075568;28;20865;-81
2024/02/22 04:48:14;;;;;;;2.67;1.67;;;;;;;;;;5073268;28;20875;-81
2024/02/22 04:50:40;;;;;;;1.98;1.70;;;;;;;;;;5059828;28;20468;-81
2024/02/22 04:53:06;;;;;;;2.05;1.70;;;;;;;;;;5065444;28;20398;-81
2024/02/22 04:55:32;;;;;;;2.58;1.52;;;;;;;;;;5072381;28;20399;-81
2024/02/22 04:58:04;;;;;;;1.83;1.60;;;;;;;;;;5075620;28;20466;-81
2024/02/22 05:00:30;;;;;;;1.52;1.40;;;;;;;;;;5079114;28;20464;-81
2024/02/22 05:02:56;;;;;;;2.05;1.73;;;;;;;;;;5079569;28;20367;-81
2024/02/22 05:05:22;;;;;;;2.05;1.50;;;;;;;;;;5078829;28;20478;-81
2024/02/22 05:07:48;;;;;;;2.03;1.48;;;;;;;;;;5079101;28;21149;-81
2024/02/22 05:10:15;;;;;;;1.60;1.50;;;;;;;;;;5079143;28;20384;-81
2024/02/22 05:12:41;;;;;;;2.03;1.60;;;;;;;;;;5079402;28;20415;-81
2024/02/22 05:15:10;;;;;;;2.38;1.70;;;;;;;;;;5079296;28;20416;-81
2024/02/22 05:17:36;;;;;;;2.20;1.90;;;;;;;;;;5079276;28;20454;-81
2024/02/22 05:20:02;;;;;;;2.67;1.80;;;;;;;;;;5078726;28;20412;-81
2024/02/22 05:22:28;;;;;;;2.00;1.80;;;;;;;;;;5078649;28;20745;-81
2024/02/22 05:24:54;;;;;;;1.90;1.65;;;;;;;;;;5077645;28;20388;-81
2024/02/22 05:27:20;;;;;;;2.53;1.80;;;;;;;;;;5079041;28;20859;-81
2024/02/22 05:29:46;;;;;;;2.17;1.92;;;;;;;;;;5078266;28;20408;-81
2024/02/22 05:32:12;;;;;;;1.90;1.67;;;;;;;;;;5078813;28;20823;-81
2024/02/22 05:34:38;;;;;;;2.67;1.73;;;;;;;;;;5078127;28;20383;-81
2024/02/22 05:37:08;;;;;;;2.80;2.20;;;;;;;;;;5078457;28;20411;-81
2024/02/22 05:39:34;;;;;;;1.80;1.70;;;;;;;;;;5078899;28;20463;-82
2024/02/22 05:42:00;;;;;;;2.22;1.80;;;;;;;;;;5078909;28;20442;-81
2024/02/22 05:44:26;;;;;;;2.30;2.10;;;;;;;;;;5079123;28;20382;-81
2024/02/22 05:46:52;;;;;;;2.27;2.00;;;;;;;;;;5078903;28;20729;-82
2024/02/22 05:49:18;;;;;;;2.50;1.92;;;;;;;;;;5078877;28;20396;-81
2024/02/22 05:51:45;;;;;;;2.20;2.00;;;;;;;;;;5080000;28;20468;-81
2024/02/22 05:54:11;;;;;;;2.85;1.92;;;;;;;;;;5078836;28;20368;-81
2024/02/22 05:56:37;;;;;;;2.25;1.77;;;;;;;;;;5079421;28;20927;-81
2024/02/22 05:59:03;;;;;;;2.10;1.70;;;;;;;;;;5079463;28;20384;-81
2024/02/22 06:01:29;;;;;;;2.45;1.85;;;;;;;;;;5079221;28;20431;-83
2024/02/22 06:03:55;;;;;;;2.63;2.10;;;;;;;;;;5078787;28;20379;-83
2024/02/22 06:06:21;;;;;;;2.92;2.10;;;;;;;;;;5078755;28;20398;-83
2024/02/22 06:08:47;;;;;;;2.28;1.70;;;;;;;;;;5074846;28;20383;-83
2024/02/22 06:11:15;;;;;;;2.40;2.08;;;;;;;;;;5056424;28;20429;-82
2024/02/22 06:13:41;;;;;;;3.05;2.08;;;;;;;;;;5058282;28;20465;-83
2024/02/22 06:16:07;;;;;;;3.42;1.92;;;;;;;;;;5058377;28;20807;-83
2024/02/22 06:18:36;;;;;;;2.15;1.88;;;;;;;;;;5058506;28;20836;-83
2024/02/22 06:21:02;;;;;;;2.05;1.77;;;;;;;;;;5057733;28;20393;-82
2024/02/22 06:23:28;;;;;;;2.00;1.70;;;;;;;;;;5060148;28;20391;-82
2024/02/22 06:25:56;;;;;;;2.28;1.80;;;;;;;;;;5056801;28;20428;-81
2024/02/22 06:28:22;;;;;;;2.40;1.95;;;;;;;;;;5057854;28;20867;-82
2024/02/22 06:30:48;;;;;;;1.90;1.80;;;;;;;;;;5057609;28;20414;-82
2024/02/22 06:33:14;;;;;;;2.00;1.80;;;;;;;;;;5062721;28;20372;-82
2024/02/22 06:35:40;;;;;;;2.00;1.75;;;;;;;;;;5077849;28;20432;-82
2024/02/22 06:38:06;;;;;;;2.25;2.05;;;;;;;;;;5077638;28;20446;-82
2024/02/22 06:40:32;;;;;;;2.05;1.80;;;;;;;;;;5076751;28;20391;-82
2024/02/22 06:42:58;;;;;;;1.75;1.50;;;;;;;;;;5075335;28;20376;-82
2024/02/22 06:45:24;;;;;;;1.95;1.60;;;;;;;;;;5077292;28;20375;-82
2024/02/22 06:47:51;;;;;;;2.70;2.20;;;;;;;;;;5077818;28;20384;-82
2024/02/22 06:50:17;;;;;;;1.73;1.63;;;;;;;;;;5077331;28;20763;-82
2024/02/22 06:52:44;;;;;;;1.60;1.50;;;;;;;;;;5077032;28;20399;-82
2024/02/22 06:55:12;;;;;;;1.80;1.70;;;;;;;;;;5077479;28;20895;-82
2024/02/22 06:57:40;;;;;;;2.08;1.60;;;;;;;;;;5076981;28;20454;-82
2024/02/22 07:00:09;;;;;;;1.63;1.50;;;;;;;;;;5075828;28;21163;-82
2024/02/22 07:02:35;;;;;;;2.33;1.75;;;;;;;;;;5076770;28;20388;-82
2024/02/22 07:05:01;;;;;;;3.10;2.43;;;;;;;;;;5077156;28;20479;-83
2024/02/22 07:07:27;;;;;;;2.70;2.30;;;;;;;;;;5076716;28;20388;-82
2024/02/22 07:09:55;;;;;;;2.55;2.35;;;;;;;;;;5076848;28;20878;-82
2024/02/22 07:12:21;;;;;;;2.22;2.03;;;;;;;;;;5076586;28;20458;-82
2024/02/22 07:14:47;;;;;;;2.20;2.00;;;;;;;;;;5077349;28;20388;-83
2024/02/22 07:17:13;;;;;;;1.97;1.77;;;;;;;;;;5076623;28;20418;-83
2024/02/22 07:19:43;;;;;;;2.50;2.17;;;;;;;;;;5076598;28;20407;-83
2024/02/22 07:22:09;;;;;;;2.23;1.97;;;;;;;;;;5076355;28;20383;-83
2024/02/22 07:24:35;;;;;;;2.10;1.90;;;;;;;;;;5076998;28;20384;-83
2024/02/22 07:27:01;;;;;;;2.40;2.03;;;;;;;;;;5076229;28;20722;-83
2024/02/22 07:29:30;;;;;;;1.80;1.70;;;;;;;;;;5076193;28;20411;-82
2024/02/22 07:31:56;;;;;;;1.70;1.50;;;;;;;;;;5076744;28;20785;-82
2024/02/22 07:34:23;;;;;;;1.60;1.50;;;;;;;;;;5076201;28;20524;-83
2024/02/22 07:36:50;;;;;;;1.70;1.60;;;;;;;;;;5076087;28;20430;-83
2024/02/22 07:39:16;;;;;;;1.80;1.60;;;;;;;;;;5076137;28;20383;-82
2024/02/22 07:41:45;;;;;;;2.00;1.60;;;;;;;;;;5076211;28;20388;-82
2024/02/22 07:44:11;;;;;;;1.42;1.33;;;;;;;;;;5077948;28;20398;-82
2024/02/22 07:46:39;;;;;;;1.92;1.40;;;;;;;;;;5075309;28;20474;-82
2024/02/22 07:49:05;;;;;;;1.55;1.42;;;;;;;;;;5075288;28;20454;-82
2024/02/22 07:51:31;;;;;;;2.08;1.60;;;;;;;;;;5075588;28;20439;-82
2024/02/22 07:53:57;;;;;;;2.00;1.80;;;;;;;;;;5075843;28;20459;-82
2024/02/22 07:56:23;;;;;;;2.35;1.48;;;;;;;;;;5075796;28;20734;-83
2024/02/22 07:58:51;;;;;;;2.55;1.80;;;;;;;;;;5076129;28;20380;-82
2024/02/22 08:01:17;;;;;;;2.67;2.20;;;;;;;;;;5075684;28;20408;-82
2024/02/22 08:03:44;;;;;;;2.25;1.67;;;;;;;;;;5075488;28;20390;-82
2024/02/22 08:06:10;;;;;;;1.88;1.45;;;;;;;;;;5075686;28;20841;-83
2024/02/22 08:08:36;;;;;;;1.73;1.30;;;;;;;;;;5075460;28;20387;-83
2024/02/22 08:11:03;;;;;;;1.40;1.30;;;;;;;;;;5076048;28;20407;-83
2024/02/22 08:13:29;;;;;;;1.20;1.10;;;;;;;;;;5074880;28;20463;-83
2024/02/22 08:16:08;;;;;;;1.65;1.50;;;;;;;;;;5075427;28;20404;-82
2024/02/22 08:18:34;;;;;;;1.30;1.20;;;;;;;;;;5056855;28;20365;-82
2024/02/22 08:21:00;;;;;;;2.45;1.30;;;;;;;;;;5055337;28;20778;-82
2024/02/22 08:23:27;;;;;;;1.60;1.50;;;;;;;;;;5055215;28;20393;-84
2024/02/22 08:25:53;;;;;;;2.20;1.35;;;;;;;;;;5055057;28;20382;-82
2024/02/22 08:28:19;;;;;;;1.75;1.40;;;;;;;;;;5055512;28;20775;-82
2024/02/22 08:30:45;;;;;;;1.70;1.20;;;;;;;;;;5054387;28;20427;-81
2024/02/22 08:33:11;;;;;;;1.37;1.17;;;;;;;;;;5067602;28;20388;-83
2024/02/22 08:35:37;;;;;;;1.60;1.30;;;;;;;;;;5075690;28;20389;-82
2024/02/22 08:38:03;;;;;;;1.92;1.23;;;;;;;;;;5075423;28;20399;-82
2024/02/22 08:40:29;;;;;;;1.92;1.20;;;;;;;;;;5074873;28;20442;-82
2024/02/22 08:43:00;;;;;;;1.75;1.38;;;;;;;;;;5075760;28;20834;-82
2024/02/22 08:45:26;;;;;;;2.30;1.90;;;;;;;;;;5075650;28;20380;-82
2024/02/22 08:47:52;;;;;;;1.40;1.20;;;;;;;;;;5075285;28;20949;-82
2024/02/22 08:50:18;;;;;;;1.42;1.33;;;;;;;;;;5074819;28;20435;-81
2024/02/22 08:52:45;;;;;;;2.23;1.60;;;;;;;;;;5074451;28;20749;-81
2024/02/22 08:55:12;;;;;;;1.30;1.20;;;;;;;;;;5074463;28;20379;-81
2024/02/22 08:57:38;;;;;;;1.35;1.25;;;;;;;;;;5074588;28;20471;-81
2024/02/22 09:00:05;;;;;;;1.35;1.25;;;;;;;;;;5074626;28;20455;-81
2024/02/22 09:02:31;;;;;;;1.38;1.15;;;;;;;;;;5074539;28;20375;-81
2024/02/22 09:04:58;;;;;;;1.77;1.30;;;;;;;;;;5074355;28;20380;-82
2024/02/22 09:07:24;;;;;;;1.42;1.02;;;;;;;;;;5074456;28;20380;-81
2024/02/22 09:09:51;;;;;;;1.55;1.30;;;;;;;;;;5074195;28;20379;-82
2024/02/22 09:12:17;;;;;;;1.42;1.30;;;;;;;;;;5076569;28;20418;-82
2024/02/22 09:14:43;;;;;;;1.40;1.20;;;;;;;;;;5074146;28;20423;-81
2024/02/22 09:17:09;;;;;;;1.85;1.63;;;;;;;;;;5073783;28;20838;-81
2024/02/22 09:19:35;;;;;;;2.28;1.60;;;;;;;;;;5074258;28;20376;-82
2024/02/22 09:22:02;;;;;;;1.30;1.20;;;;;;;;;;5073678;28;21260;-81
2024/02/22 09:24:29;;;;;;;1.13;1.02;;;;;;;;;;5074289;28;20387;-81
2024/02/22 09:26:55;;;;;;;1.10;1.00;;;;;;;;;;5074242;28;20384;-83
2024/02/22 09:29:21;;;;;;;1.10;1.00;;;;;;;;;;5075397;28;20403;-83
2024/02/22 09:31:47;;;;;;;1.08;0.98;;;;;;;;;;5075598;28;20420;-83
2024/02/22 09:34:13;;;;;;;1.38;1.10;;;;;;;;;;5074898;28;20376;-83
2024/02/22 09:36:40;;;;;;;0.70;0.70;;;;;;;;;;5075296;28;20752;-82
2024/02/22 09:39:07;;;;;;;0.95;0.85;;;;;;;;;;5074928;28;20383;-83
2024/02/22 09:41:33;;;;;;;1.70;1.30;;;;;;;;;;5075806;28;20410;-84
2024/02/22 09:44:00;;;;;;;1.27;1.15;;;;;;;;;;5076515;28;20375;-82
2024/02/22 09:46:26;;;;;;;1.70;1.17;;;;;;;;;;5078788;28;20468;-83
2024/02/22 09:48:52;;;;;;;1.13;1.00;;;;;;;;;;5078825;28;20873;-83
2024/02/22 09:51:18;;;;;;;1.83;1.02;;;;;;;;;;5079177;28;20980;-83
2024/02/22 09:53:45;;;;;;;1.80;1.00;;;;;;;;;;5079186;28;20466;-83
2024/02/22 09:56:14;;;;;;;1.02;0.90;;;;;;;;;;5079157;28;20445;-85
2024/02/22 09:58:40;;;;;;;1.10;0.80;;;;;;;;;;5078993;28;20371;-83
2024/02/22 10:01:06;;;;;;;1.27;0.90;;;;;;;;;;5079264;28;20380;-84
2024/02/22 10:03:32;;;;;;;1.45;0.93;;;;;;;;;;5078778;28;20453;-83
2024/02/22 10:05:58;;;;;;;0.80;0.80;;;;;;;;;;5078789;28;20388;-83
2024/02/22 10:08:24;;;;;;;0.50;0.50;;;;;;;;;;5078758;28;20387;-83
2024/02/22 10:10:55;;;;;;;0.80;0.68;;;;;;;;;;5077753;28;20390;-83
2024/02/22 10:13:21;;;;;;;0.50;0.50;;;;;;;;;;5077988;28;20887;-83
2024/02/22 10:15:47;;;;;;;1.30;0.80;;;;;;;;;;5078346;28;20522;-82
2024/02/22 10:18:13;;;;;;;0.77;0.68;;;;;;;;;;5077917;28;20410;-82
2024/02/22 10:20:39;;;;;;;1.30;0.70;;;;;;;;;;5077608;28;20379;-83
2024/02/22 10:23:09;;;;;;;0.60;0.60;;;;;;;;;;5078135;28;20375;-83
2024/02/22 10:25:36;;;;;;;0.77;0.68;;;;;;;;;;5077804;28;20372;-83
2024/02/22 10:28:03;;;;;;;0.70;0.70;;;;;;;;;;5064516;28;20859;-84
2024/02/22 10:30:29;;;;;;;0.70;0.63;;;;;;;;;;5058058;28;20397;-84
2024/02/22 10:32:56;;;;;;;0.80;0.50;;;;;;;;;;5058581;28;20412;-84
2024/02/22 10:35:23;;;;;;;1.08;0.60;;;;;;;;;;5057918;28;20434;-84
2024/02/22 10:37:53;;;;;;;0.60;0.60;;;;;;;;;;5058338;28;20386;-84
2024/02/22 10:40:19;;;;;;;0.68;0.63;;;;;;;;;;5070881;28;20467;-84
2024/02/22 10:42:49;;;;;;;0.85;0.75;;;;;;;;;;5078209;28;20868;-84
2024/02/22 10:45:15;;;;;;;1.15;0.75;;;;;;;;;;5078489;28;20740;-84
2024/02/22 10:47:41;;;;;;;0.60;0.60;;;;;;;;;;5069595;28;20576;-85
2024/02/22 10:50:08;;;;;;;0.90;0.60;;;;;;;;;;5058445;28;20392;-84
2024/02/22 10:52:39;;;;;;;0.70;0.50;;;;;;;;;;5058057;28;20401;-84
2024/02/22 10:55:09;;;;;;;0.70;0.60;;;;;;;;;;5057915;28;20452;-84
2024/02/22 10:57:35;;;;;;;0.52;0.40;;;;;;;;;;5056657;28;20388;-84
2024/02/22 11:00:02;;;;;;;1.40;0.68;;;;;;;;;;5057866;28;20385;-84
2024/02/22 11:02:28;;;;;;;0.70;0.70;;;;;;;;;;5057787;28;20393;-84
2024/02/22 11:05:03;;;;;;;0.90;0.77;;;;;;;;;;5058202;28;20381;-85
2024/02/22 11:07:29;;;;;;;0.70;0.60;;;;;;;;;;5057858;28;20523;-84
2024/02/22 11:10:05;;;;;;;0.70;0.60;;;;;;;;;;5056301;28;20456;-84
2024/02/22 11:12:32;;;;;;;0.88;0.60;;;;;;;;;;5057473;28;20416;-84
2024/02/22 11:15:06;;;;;;;0.88;0.57;;;;;;;;;;5057941;28;20449;-84
2024/02/22 11:17:32;;;;;;;0.55;0.40;;;;;;;;;;5057913;28;20369;-83
2024/02/22 11:20:08;;;;;;;1.00;0.50;;;;;;;;;;5057228;28;20456;-85
2024/02/22 11:22:35;;;;;;;0.65;0.60;;;;;;;;;;5057700;28;20760;-85
2024/02/22 11:25:01;;;;;;;0.85;0.70;;;;;;;;;;5057411;28;20378;-85
2024/02/22 11:27:27;;;;;;;1.00;0.70;;;;;;;;;;5056049;28;20457;-83
2024/02/22 11:29:53;;;;;;;0.70;0.70;;;;;;;;;;5057029;28;20428;-85
2024/02/22 11:32:19;;;;;;;0.68;0.65;;;;;;;;;;5057708;28;21082;-83
2024/02/22 11:34:45;;;;;;;0.50;0.50;;;;;;;;;;5057384;28;20385;-85
2024/02/22 11:37:16;;;;;;;1.20;0.70;;;;;;;;;;5074639;28;20383;-83
2024/02/22 11:39:43;;;;;;;0.77;0.68;;;;;;;;;;5076731;28;20379;-84
2024/02/22 11:42:14;;;;;;;0.70;0.55;;;;;;;;;;5076841;28;20893;-83
2024/02/22 11:44:40;;;;;;;0.75;0.70;;;;;;;;;;5077043;28;20380;-84
2024/02/22 11:47:06;;;;;;;0.63;0.52;;;;;;;;;;5076663;28;20795;-83
2024/02/22 11:49:33;;;;;;;0.70;0.50;;;;;;;;;;5076416;28;20452;-83
2024/02/22 11:51:58;;;;;;;0.65;0.40;;;;;;;;;;5076474;28;20491;-84
2024/02/22 11:54:25;;;;;;;1.70;0.90;;;;;;;;;;5076654;28;20779;-84
2024/02/22 11:56:52;;;;;;;0.40;0.40;;;;;;;;;;5075843;28;20505;-84
2024/02/22 11:59:18;;;;;;;0.43;0.40;;;;;;;;;;5076613;28;20376;-84
2024/02/22 12:01:44;;;;;;;0.90;0.53;;;;;;;;;;5076945;28;20380;-85
2024/02/22 12:04:11;;;;;;;0.60;0.40;;;;;;;;;;5076318;28;20472;-84
2024/02/22 12:06:37;;;;;;;0.55;0.50;;;;;;;;;;5076204;28;20388;-83
2024/02/22 12:09:04;;;;;;;0.95;0.50;;;;;;;;;;5074583;28;20387;-83
2024/02/22 12:11:30;;;;;;;0.60;0.50;;;;;;;;;;5074383;28;20411;-84
2024/02/22 12:13:57;;;;;;;0.60;0.60;;;;;;;;;;5076662;28;20378;-83
2024/02/22 12:16:23;;;;;;;0.90;0.60;;;;;;;;;;5071604;28;20384;-84
2024/02/22 12:18:50;;;;;;;1.00;0.80;;;;;;;;;;5074204;28;20376;-83
2024/02/22 12:21:16;;;;;;;1.00;0.60;;;;;;;;;;5074650;28;20384;-83
2024/02/22 12:23:42;;;;;;;0.98;0.70;;;;;;;;;;5072891;28;20395;-83
2024/02/22 12:26:08;;;;;;;1.10;0.80;;;;;;;;;;5074912;28;20966;-83
2024/02/22 12:28:37;;;;;;;0.87;0.60;;;;;;;;;;5074342;28;20492;-84
2024/02/22 12:31:04;;;;;;;0.60;0.60;;;;;;;;;;5075059;28;20761;-84
2024/02/22 12:33:31;;;;;;;0.93;0.70;;;;;;;;;;5075765;28;20430;-84
2024/02/22 12:35:57;;;;;;;1.10;0.80;;;;;;;;;;5071842;28;20381;-84
2024/02/22 12:38:23;;;;;;;1.45;0.80;;;;;;;;;;5075382;28;20467;-84
2024/02/22 12:40:49;;;;;;;1.20;1.10;;;;;;;;;;5073568;28;20463;-85
2024/02/22 12:43:15;;;;;;;2.05;0.98;;;;;;;;;;5074533;28;20411;-84
2024/02/22 12:45:42;;;;;;;1.25;0.90;;;;;;;;;;5075934;28;20384;-84
2024/02/22 12:48:08;;;;;;;2.10;1.40;;;;;;;;;;5076561;28;20451;-84
2024/02/22 12:50:35;;;;;;;0.60;0.60;;;;;;;;;;5075609;28;20372;-84
2024/02/22 12:53:01;;;;;;;1.80;0.90;;;;;;;;;;5075759;28;20403;-84
2024/02/22 12:55:29;;;;;;;0.73;0.73;;;;;;;;;;5061095;28;20618;-84
2024/02/22 12:57:55;;;;;;;0.80;0.60;;;;;;;;;;5063722;28;20378;-84
2024/02/22 13:00:21;;;;;;;1.00;0.70;;;;;;;;;;5065147;28;20469;-83
2024/02/22 13:02:47;;;;;;;1.40;0.82;;;;;;;;;;5066728;28;21004;-83
2024/02/22 13:05:13;;;;;;;0.80;0.80;;;;;;;;;;5065567;28;20421;-84
2024/02/22 13:07:39;;;;;;;0.80;0.75;;;;;;;;;;5059612;28;20397;-83
2024/02/22 13:10:05;;;;;;;1.27;0.80;;;;;;;;;;5056388;28;20489;-84
2024/02/22 13:12:35;;;;;;;1.42;0.82;;;;;;;;;;5055488;28;20404;-84
2024/02/22 13:15:01;;;;;;;0.95;0.70;;;;;;;;;;5063588;28;20390;-84
2024/02/22 13:17:27;;;;;;;0.90;0.70;;;;;;;;;;5072485;28;20384;-84
2024/02/22 13:19:53;;;;;;;2.08;0.90;;;;;;;;;;5057481;28;20377;-84
2024/02/22 13:22:19;;;;;;;0.98;0.85;;;;;;;;;;5068955;28;20375;-84
2024/02/22 13:24:45;;;;;;;0.90;0.80;;;;;;;;;;5070150;28;20389;-84
2024/02/22 13:27:15;;;;;;;1.53;0.70;;;;;;;;;;5075503;28;20383;-84
2024/02/22 13:29:41;;;;;;;1.10;0.70;;;;;;;;;;5078820;28;20403;-84
2024/02/22 13:32:07;;;;;;;1.33;0.88;;;;;;;;;;5078712;28;20395;-84
2024/02/22 13:34:33;;;;;;;1.25;0.80;;;;;;;;;;5071634;28;20380;-84
2024/02/22 13:36:59;;;;;;;1.60;0.80;;;;;;;;;;5072294;28;20894;-84
2024/02/22 13:39:26;;;;;;;0.95;0.60;;;;;;;;;;5067042;28;20377;-84
2024/02/22 13:41:54;;;;;;;1.10;0.80;;;;;;;;;;5069816;28;20377;-83
2024/02/22 13:44:21;;;;;;;2.65;0.80;;;;;;;;;;5070438;28;20387;-84
2024/02/22 13:46:49;;;;;;;0.70;0.70;;;;;;;;;;5078752;28;20439;-84
2024/02/22 13:49:17;;;;;;;0.80;0.80;;;;;;;;;;5078851;28;20379;-84
2024/02/22 13:51:46;;;;;;;1.00;0.70;;;;;;;;;;5079141;28;20399;-85
2024/02/22 13:54:12;;;;;;;1.00;0.80;;;;;;;;;;5079452;28;20413;-85
2024/02/22 13:56:38;;;;;;;1.48;1.27;;;;;;;;;;5078054;28;20862;-84
2024/02/22 13:59:04;;;;;;;0.68;0.68;;;;;;;;;;5078849;28;20466;-84
2024/02/22 14:01:30;;;;;;;1.88;0.80;;;;;;;;;;5078344;28;20386;-82
2024/02/22 14:03:56;;;;;;;1.08;0.60;;;;;;;;;;5079013;28;20449;-84
2024/02/22 14:06:22;;;;;;;2.30;0.80;;;;;;;;;;5092678;28;20453;-83
2024/02/22 14:08:48;;;;;;;1.50;1.00;;;;;;;;;;5097822;28;20413;-83
2024/02/22 14:11:14;;;;;;;0.80;0.80;;;;;;;;;;5097934;28;20571;-83
2024/02/22 14:13:40;;;;;;;0.80;0.80;;;;;;;;;;5098444;28;20431;-83
2024/02/22 14:16:07;;;;;;;1.00;0.90;;;;;;;;;;5097899;28;20448;-83
2024/02/22 14:18:35;;;;;;;1.13;1.00;;;;;;;;;;5098466;28;20370;-83
2024/02/22 14:21:02;;;;;;;0.80;0.80;;;;;;;;;;5097609;28;20427;-83
2024/02/22 14:23:28;;;;;;;0.85;0.82;;;;;;;;;;5098751;28;20382;-83
2024/02/22 14:25:54;;;;;;;0.70;0.70;;;;;;;;;;5098602;28;20404;-83
2024/02/22 14:28:20;;;;;;;0.77;0.77;;;;;;;;;;5061909;28;20396;-83
2024/02/22 14:30:46;;;;;;;0.70;0.70;;;;;;;;;;5057446;28;20401;-83
2024/02/22 14:33:12;;;;;;;1.45;0.80;;;;;;;;;;5056683;28;20389;-83
2024/02/22 14:35:38;;;;;;;1.25;0.80;;;;;;;;;;5056783;28;20457;-83
2024/02/22 14:38:04;;;;;;;0.88;0.80;;;;;;;;;;5055271;28;20411;-83
2024/02/22 14:40:31;;;;;;;1.20;0.93;;;;;;;;;;5062800;28;20372;-83